Terminal Aerodrome Forecast
Issued by NWS

Home | Current Version | Previous Version | Text Only | Print | Product List | Glossary On
Versions: 1 2 3 4 5 6 7 8 9 10 11 12 13 14 15 16 17 18 19 20 21 22 23 24 25 26 27 28
000
FTUS41 KCTP 290610 RRA
TAFUNV
TAF
KUNV 290610Z 2906/3006 VRB04KT 5SM -RA OVC050
     FM290700 VRB03KT P6SM OVC050
     FM291000 25005KT P6SM OVC050
     FM292000 30005KT P6SM OVC050
     FM300000 VRB03KT P6SM OVC050=

USA.gov is the U.S. government's official web portal to all federal, state and local government web resources and services.